Chamical, Argentina
Current Conditions -  °F | °C
As of 8:00 AM on Monday 20 Oct 2014 (Local Time) from SACO Reporting Station
Clear Clear  
Wind Chill: 59°   Ceiling: Unl
Heat Index: 59°   Visibility: 6mi
Dew Point: 43°   Wind: 3mph
Humidity: 55%   Direction: 20°NNE
Pressure: 30.21"   Gusts: NA
Location:  30.36°S, 66.31°W
Report Text: SACO 201100Z 02003KT CAVOK 15/06 Q1023
Loading
Personal Weather Stations






























Interactive Weather Map
Tropical Storm Tracking
New forecast layout! Learn more

10-Day Weather Forecast

Advertisements
Track Severe Weather on mobile